sensor_id;sensor_type;location;lat;lon;timestamp;P1;durP1;ratioP1;P2;durP2;ratioP2
76989;SDS011;65924;47.250;11.332;2023-12-14T00:00:04;8.60;;;6.90;;
76989;SDS011;65924;47.250;11.332;2023-12-14T00:00:36;8.60;;;6.70;;
76989;SDS011;65924;47.250;11.332;2023-12-14T00:01:06;10.20;;;6.40;;
76989;SDS011;65924;47.250;11.332;2023-12-14T00:01:40;9.00;;;6.60;;
76989;SDS011;65924;47.250;11.332;2023-12-14T00:02:11;9.30;;;7.00;;
76989;SDS011;65924;47.250;11.332;2023-12-14T00:02:42;8.40;;;6.60;;
76989;SDS011;65924;47.250;11.332;2023-12-14T00:03:13;8.50;;;6.80;;
76989;SDS011;65924;47.250;11.332;2023-12-14T00:03:44;8.30;;;6.40;;
76989;SDS011;65924;47.250;11.332;2023-12-14T00:04:15;9.70;;;7.20;;
76989;SDS011;65924;47.250;11.332;2023-12-14T00:04:46;9.60;;;7.70;;
76989;SDS011;65924;47.250;11.332;2023-12-14T00:05:16;9.70;;;7.40;;
76989;SDS011;65924;47.250;11.332;2023-12-14T00:05:47;9.80;;;7.30;;
76989;SDS011;65924;47.250;11.332;2023-12-14T00:06:18;9.90;;;7.30;;
76989;SDS011;65924;47.250;11.332;2023-12-14T00:06:49;9.10;;;7.00;;
76989;SDS011;65924;47.250;11.332;2023-12-14T00:07:22;10.40;;;8.00;;
76989;SDS011;65924;47.250;11.332;2023-12-14T00:07:53;9.50;;;7.20;;
76989;SDS011;65924;47.250;11.332;2023-12-14T00:08:23;8.90;;;7.40;;
76989;SDS011;65924;47.250;11.332;2023-12-14T00:08:56;9.50;;;7.50;;
76989;SDS011;65924;47.250;11.332;2023-12-14T00:09:30;9.80;;;7.20;;
76989;SDS011;65924;47.250;11.332;2023-12-14T00:10:05;9.90;;;7.50;;
76989;SDS011;65924;47.250;11.332;2023-12-14T00:10:36;9.80;;;7.50;;
76989;SDS011;65924;47.250;11.332;2023-12-14T00:11:07;9.30;;;6.90;;
76989;SDS011;65924;47.250;11.332;2023-12-14T00:11:42;9.80;;;8.00;;
76989;SDS011;65924;47.250;11.332;2023-12-14T00:12:15;9.80;;;7.80;;
76989;SDS011;65924;47.250;11.332;2023-12-14T00:12:46;9.60;;;7.60;;
76989;SDS011;65924;47.250;11.332;2023-12-14T00:13:21;10.00;;;7.60;;
76989;SDS011;65924;47.250;11.332;2023-12-14T00:13:51;10.50;;;7.70;;
76989;SDS011;65924;47.250;11.332;2023-12-14T00:14:22;9.20;;;7.00;;
76989;SDS011;65924;47.250;11.332;2023-12-14T00:14:53;9.70;;;6.90;;
76989;SDS011;65924;47.250;11.332;2023-12-14T00:15:23;8.70;;;6.60;;
76989;SDS011;65924;47.250;11.332;2023-12-14T00:15:54;8.60;;;6.80;;
76989;SDS011;65924;47.250;11.332;2023-12-14T00:16:25;8.50;;;6.60;;
76989;SDS011;65924;47.250;11.332;2023-12-14T00:16:55;9.40;;;7.10;;
76989;SDS011;65924;47.250;11.332;2023-12-14T00:17:29;8.90;;;6.90;;
76989;SDS011;65924;47.250;11.332;2023-12-14T00:18:00;9.50;;;6.80;;
76989;SDS011;65924;47.250;11.332;2023-12-14T00:18:31;8.80;;;6.90;;
76989;SDS011;65924;47.250;11.332;2023-12-14T00:19:02;8.20;;;6.10;;
76989;SDS011;65924;47.250;11.332;2023-12-14T00:19:33;9.80;;;7.50;;
76989;SDS011;65924;47.250;11.332;2023-12-14T00:20:13;9.20;;;6.50;;
76989;SDS011;65924;47.250;11.332;2023-12-14T00:20:46;7.80;;;5.90;;
76989;SDS011;65924;47.250;11.332;2023-12-14T00:21:18;8.20;;;6.70;;
76989;SDS011;65924;47.250;11.332;2023-12-14T00:21:49;8.40;;;6.20;;
76989;SDS011;65924;47.250;11.332;2023-12-14T00:22:22;9.00;;;6.50;;
76989;SDS011;65924;47.250;11.332;2023-12-14T00:22:53;8.20;;;6.30;;
76989;SDS011;65924;47.250;11.332;2023-12-14T00:23:24;8.80;;;6.30;;
76989;SDS011;65924;47.250;11.332;2023-12-14T00:23:55;8.40;;;6.20;;
76989;SDS011;65924;47.250;11.332;2023-12-14T00:24:26;7.50;;;6.10;;
76989;SDS011;65924;47.250;11.332;2023-12-14T00:24:56;9.00;;;6.40;;
76989;SDS011;65924;47.250;11.332;2023-12-14T00:25:30;8.30;;;5.80;;
76989;SDS011;65924;47.250;11.332;2023-12-14T00:26:00;8.00;;;6.10;;
76989;SDS011;65924;47.250;11.332;2023-12-14T00:26:31;7.70;;;6.10;;
76989;SDS011;65924;47.250;11.332;2023-12-14T00:27:02;7.70;;;6.50;;
76989;SDS011;65924;47.250;11.332;2023-12-14T00:27:44;7.20;;;5.30;;
76989;SDS011;65924;47.250;11.332;2023-12-14T00:28:15;7.60;;;5.70;;
76989;SDS011;65924;47.250;11.332;2023-12-14T00:28:45;7.40;;;5.60;;
76989;SDS011;65924;47.250;11.332;2023-12-14T00:29:16;7.40;;;5.30;;
76989;SDS011;65924;47.250;11.332;2023-12-14T00:29:47;7.70;;;6.00;;
76989;SDS011;65924;47.250;11.332;2023-12-14T00:30:18;8.50;;;6.20;;
76989;SDS011;65924;47.250;11.332;2023-12-14T00:30:48;9.00;;;6.50;;
76989;SDS011;65924;47.250;11.332;2023-12-14T00:31:19;8.40;;;6.60;;
76989;SDS011;65924;47.250;11.332;2023-12-14T00:31:50;9.10;;;7.20;;
76989;SDS011;65924;47.250;11.332;2023-12-14T00:32:21;9.40;;;6.90;;
76989;SDS011;65924;47.250;11.332;2023-12-14T00:32:52;8.60;;;6.90;;
76989;SDS011;65924;47.250;11.332;2023-12-14T00:33:22;8.90;;;6.60;;
76989;SDS011;65924;47.250;11.332;2023-12-14T00:33:53;9.70;;;7.30;;
76989;SDS011;65924;47.250;11.332;2023-12-14T00:34:24;9.40;;;7.10;;
76989;SDS011;65924;47.250;11.332;2023-12-14T00:34:55;8.60;;;6.40;;
76989;SDS011;65924;47.250;11.332;2023-12-14T00:35:26;8.80;;;6.30;;
76989;SDS011;65924;47.250;11.332;2023-12-14T00:35:56;10.20;;;7.00;;
76989;SDS011;65924;47.250;11.332;2023-12-14T00:36:27;9.30;;;7.20;;
76989;SDS011;65924;47.250;11.332;2023-12-14T00:37:01;9.10;;;6.30;;
76989;SDS011;65924;47.250;11.332;2023-12-14T00:37:32;9.80;;;7.40;;
76989;SDS011;65924;47.250;11.332;2023-12-14T00:38:03;9.00;;;6.90;;
76989;SDS011;65924;47.250;11.332;2023-12-14T00:38:34;9.00;;;6.80;;
76989;SDS011;65924;47.250;11.332;2023-12-14T00:39:04;8.80;;;7.10;;
76989;SDS011;65924;47.250;11.332;2023-12-14T00:39:35;8.90;;;7.40;;
76989;SDS011;65924;47.250;11.332;2023-12-14T00:40:08;8.80;;;7.10;;
76989;SDS011;65924;47.250;11.332;2023-12-14T00:40:40;8.90;;;6.90;;
76989;SDS011;65924;47.250;11.332;2023-12-14T00:41:10;8.50;;;6.40;;
76989;SDS011;65924;47.250;11.332;2023-12-14T00:41:41;9.70;;;6.80;;
76989;SDS011;65924;47.250;11.332;2023-12-14T00:42:13;8.90;;;6.90;;
76989;SDS011;65924;47.250;11.332;2023-12-14T00:42:43;8.20;;;6.30;;
76989;SDS011;65924;47.250;11.332;2023-12-14T00:43:14;8.30;;;7.10;;
76989;SDS011;65924;47.250;11.332;2023-12-14T00:43:45;9.60;;;6.70;;
76989;SDS011;65924;47.250;11.332;2023-12-14T00:44:16;9.30;;;7.20;;
76989;SDS011;65924;47.250;11.332;2023-12-14T00:44:47;8.00;;;5.90;;
76989;SDS011;65924;47.250;11.332;2023-12-14T00:45:18;9.30;;;6.90;;
76989;SDS011;65924;47.250;11.332;2023-12-14T00:45:49;7.60;;;6.00;;
76989;SDS011;65924;47.250;11.332;2023-12-14T00:46:19;8.50;;;6.00;;
76989;SDS011;65924;47.250;11.332;2023-12-14T00:46:50;9.60;;;6.80;;
76989;SDS011;65924;47.250;11.332;2023-12-14T00:47:21;8.40;;;6.50;;
76989;SDS011;65924;47.250;11.332;2023-12-14T00:47:51;8.40;;;6.80;;
76989;SDS011;65924;47.250;11.332;2023-12-14T00:48:22;8.20;;;6.00;;
76989;SDS011;65924;47.250;11.332;2023-12-14T00:48:53;8.10;;;5.90;;
76989;SDS011;65924;47.250;11.332;2023-12-14T00:49:24;8.40;;;6.30;;
76989;SDS011;65924;47.250;11.332;2023-12-14T00:49:54;8.80;;;6.70;;
76989;SDS011;65924;47.250;11.332;2023-12-14T00:50:25;9.20;;;6.00;;
76989;SDS011;65924;47.250;11.332;2023-12-14T00:50:55;8.60;;;6.00;;
76989;SDS011;65924;47.250;11.332;2023-12-14T00:51:26;8.00;;;6.40;;
76989;SDS011;65924;47.250;11.332;2023-12-14T00:51:57;7.90;;;6.00;;
76989;SDS011;65924;47.250;11.332;2023-12-14T00:52:28;8.10;;;6.30;;
76989;SDS011;65924;47.250;11.332;2023-12-14T00:52:59;8.50;;;6.60;;
76989;SDS011;65924;47.250;11.332;2023-12-14T00:53:30;8.70;;;6.60;;
76989;SDS011;65924;47.250;11.332;2023-12-14T00:54:01;8.40;;;6.50;;
76989;SDS011;65924;47.250;11.332;2023-12-14T00:54:31;8.00;;;6.10;;
76989;SDS011;65924;47.250;11.332;2023-12-14T00:55:02;8.60;;;6.40;;
76989;SDS011;65924;47.250;11.332;2023-12-14T00:55:34;8.60;;;7.10;;
76989;SDS011;65924;47.250;11.332;2023-12-14T00:56:06;8.40;;;6.60;;
76989;SDS011;65924;47.250;11.332;2023-12-14T00:56:38;9.10;;;6.40;;
76989;SDS011;65924;47.250;11.332;2023-12-14T00:57:09;8.40;;;6.50;;
76989;SDS011;65924;47.250;11.332;2023-12-14T00:57:40;9.30;;;6.90;;
76989;SDS011;65924;47.250;11.332;2023-12-14T00:58:11;8.40;;;5.60;;
76989;SDS011;65924;47.250;11.332;2023-12-14T00:58:43;7.90;;;5.80;;
76989;SDS011;65924;47.250;11.332;2023-12-14T00:59:14;8.40;;;6.20;;
76989;SDS011;65924;47.250;11.332;2023-12-14T00:59:44;8.20;;;5.90;;
76989;SDS011;65924;47.250;11.332;2023-12-14T01:00:15;7.90;;;5.90;;
76989;SDS011;65924;47.250;11.332;2023-12-14T01:00:46;8.20;;;6.00;;
76989;SDS011;65924;47.250;11.332;2023-12-14T01:01:17;7.50;;;5.80;;
76989;SDS011;65924;47.250;11.332;2023-12-14T01:01:47;8.40;;;5.70;;
76989;SDS011;65924;47.250;11.332;2023-12-14T01:02:18;8.70;;;6.10;;
76989;SDS011;65924;47.250;11.332;2023-12-14T01:02:49;8.70;;;6.00;;
76989;SDS011;65924;47.250;11.332;2023-12-14T01:03:20;7.90;;;6.10;;
76989;SDS011;65924;47.250;11.332;2023-12-14T01:03:51;8.10;;;6.10;;
76989;SDS011;65924;47.250;11.332;2023-12-14T01:04:21;9.50;;;6.70;;
76989;SDS011;65924;47.250;11.332;2023-12-14T01:04:52;8.80;;;6.70;;
76989;SDS011;65924;47.250;11.332;2023-12-14T01:05:23;10.50;;;7.50;;
76989;SDS011;65924;47.250;11.332;2023-12-14T01:05:54;10.00;;;8.30;;
76989;SDS011;65924;47.250;11.332;2023-12-14T01:06:25;9.50;;;7.40;;
76989;SDS011;65924;47.250;11.332;2023-12-14T01:06:55;9.70;;;7.60;;
76989;SDS011;65924;47.250;11.332;2023-12-14T01:07:26;10.80;;;7.20;;
76989;SDS011;65924;47.250;11.332;2023-12-14T01:07:57;10.10;;;7.50;;
76989;SDS011;65924;47.250;11.332;2023-12-14T01:08:27;10.80;;;6.80;;
76989;SDS011;65924;47.250;11.332;2023-12-14T01:08:58;8.80;;;7.00;;
76989;SDS011;65924;47.250;11.332;2023-12-14T01:09:29;9.40;;;6.70;;
76989;SDS011;65924;47.250;11.332;2023-12-14T01:10:00;9.80;;;7.00;;
76989;SDS011;65924;47.250;11.332;2023-12-14T01:10:30;9.40;;;7.30;;
76989;SDS011;65924;47.250;11.332;2023-12-14T01:11:01;9.00;;;7.00;;
76989;SDS011;65924;47.250;11.332;2023-12-14T01:11:32;9.60;;;7.20;;
76989;SDS011;65924;47.250;11.332;2023-12-14T01:12:06;9.10;;;7.30;;
76989;SDS011;65924;47.250;11.332;2023-12-14T01:12:37;9.70;;;7.00;;
76989;SDS011;65924;47.250;11.332;2023-12-14T01:13:07;9.80;;;7.10;;
76989;SDS011;65924;47.250;11.332;2023-12-14T01:13:38;10.90;;;7.40;;
76989;SDS011;65924;47.250;11.332;2023-12-14T01:14:11;9.60;;;7.10;;
76989;SDS011;65924;47.250;11.332;2023-12-14T01:14:41;9.50;;;7.40;;
76989;SDS011;65924;47.250;11.332;2023-12-14T01:15:12;9.90;;;7.40;;
76989;SDS011;65924;47.250;11.332;2023-12-14T01:15:43;9.20;;;7.20;;
76989;SDS011;65924;47.250;11.332;2023-12-14T01:16:14;9.20;;;6.60;;
76989;SDS011;65924;47.250;11.332;2023-12-14T01:16:45;10.50;;;8.00;;
76989;SDS011;65924;47.250;11.332;2023-12-14T01:17:15;10.20;;;7.20;;
76989;SDS011;65924;47.250;11.332;2023-12-14T01:17:46;10.40;;;7.30;;
76989;SDS011;65924;47.250;11.332;2023-12-14T01:18:18;11.10;;;7.50;;
76989;SDS011;65924;47.250;11.332;2023-12-14T01:18:49;10.70;;;7.70;;
76989;SDS011;65924;47.250;11.332;2023-12-14T01:19:19;11.00;;;7.80;;
76989;SDS011;65924;47.250;11.332;2023-12-14T01:19:50;9.70;;;7.10;;
76989;SDS011;65924;47.250;11.332;2023-12-14T01:20:21;9.80;;;7.20;;
76989;SDS011;65924;47.250;11.332;2023-12-14T01:20:52;10.30;;;7.90;;
76989;SDS011;65924;47.250;11.332;2023-12-14T01:21:22;10.10;;;7.70;;
76989;SDS011;65924;47.250;11.332;2023-12-14T01:21:53;9.90;;;7.90;;
76989;SDS011;65924;47.250;11.332;2023-12-14T01:22:25;10.00;;;7.30;;
76989;SDS011;65924;47.250;11.332;2023-12-14T01:22:56;9.30;;;7.50;;
76989;SDS011;65924;47.250;11.332;2023-12-14T01:23:27;10.90;;;7.90;;
76989;SDS011;65924;47.250;11.332;2023-12-14T01:23:58;9.30;;;7.10;;
76989;SDS011;65924;47.250;11.332;2023-12-14T01:24:31;10.70;;;7.10;;
76989;SDS011;65924;47.250;11.332;2023-12-14T01:25:03;10.70;;;7.10;;
76989;SDS011;65924;47.250;11.332;2023-12-14T01:25:34;9.60;;;7.30;;
76989;SDS011;65924;47.250;11.332;2023-12-14T01:26:04;9.30;;;7.40;;
76989;SDS011;65924;47.250;11.332;2023-12-14T01:26:35;9.10;;;6.80;;
76989;SDS011;65924;47.250;11.332;2023-12-14T01:27:06;8.90;;;6.40;;
76989;SDS011;65924;47.250;11.332;2023-12-14T01:27:40;8.20;;;5.90;;
76989;SDS011;65924;47.250;11.332;2023-12-14T01:28:10;8.80;;;6.60;;
76989;SDS011;65924;47.250;11.332;2023-12-14T01:28:44;8.80;;;6.10;;
76989;SDS011;65924;47.250;11.332;2023-12-14T01:29:14;8.90;;;6.50;;
76989;SDS011;65924;47.250;11.332;2023-12-14T01:29:45;8.40;;;6.40;;
76989;SDS011;65924;47.250;11.332;2023-12-14T01:30:16;7.70;;;5.90;;
76989;SDS011;65924;47.250;11.332;2023-12-14T01:30:46;9.80;;;6.00;;
76989;SDS011;65924;47.250;11.332;2023-12-14T01:31:18;8.20;;;5.70;;
76989;SDS011;65924;47.250;11.332;2023-12-14T01:31:49;8.60;;;6.10;;
76989;SDS011;65924;47.250;11.332;2023-12-14T01:32:20;7.70;;;5.80;;
76989;SDS011;65924;47.250;11.332;2023-12-14T01:32:51;8.40;;;5.80;;
76989;SDS011;65924;47.250;11.332;2023-12-14T01:33:22;7.40;;;5.50;;
76989;SDS011;65924;47.250;11.332;2023-12-14T01:33:52;7.70;;;5.80;;
76989;SDS011;65924;47.250;11.332;2023-12-14T01:34:23;7.60;;;5.40;;
76989;SDS011;65924;47.250;11.332;2023-12-14T01:34:54;7.40;;;5.30;;
76989;SDS011;65924;47.250;11.332;2023-12-14T01:35:25;6.90;;;5.10;;
76989;SDS011;65924;47.250;11.332;2023-12-14T01:35:55;7.30;;;4.90;;
76989;SDS011;65924;47.250;11.332;2023-12-14T01:36:26;7.30;;;5.40;;
76989;SDS011;65924;47.250;11.332;2023-12-14T01:36:57;7.10;;;5.00;;
76989;SDS011;65924;47.250;11.332;2023-12-14T01:37:27;8.20;;;6.20;;
76989;SDS011;65924;47.250;11.332;2023-12-14T01:37:58;8.00;;;6.10;;
76989;SDS011;65924;47.250;11.332;2023-12-14T01:38:29;8.10;;;6.30;;
76989;SDS011;65924;47.250;11.332;2023-12-14T01:39:00;8.80;;;6.50;;
76989;SDS011;65924;47.250;11.332;2023-12-14T01:39:31;8.30;;;6.00;;
76989;SDS011;65924;47.250;11.332;2023-12-14T01:40:01;9.20;;;7.00;;
76989;SDS011;65924;47.250;11.332;2023-12-14T01:40:32;10.40;;;6.30;;
76989;SDS011;65924;47.250;11.332;2023-12-14T01:41:03;9.70;;;6.20;;
76989;SDS011;65924;47.250;11.332;2023-12-14T01:41:34;9.40;;;7.50;;
76989;SDS011;65924;47.250;11.332;2023-12-14T01:42:05;8.20;;;6.60;;
76989;SDS011;65924;47.250;11.332;2023-12-14T01:42:38;9.10;;;6.60;;
76989;SDS011;65924;47.250;11.332;2023-12-14T01:43:11;8.10;;;7.00;;
76989;SDS011;65924;47.250;11.332;2023-12-14T01:43:42;9.10;;;6.50;;
76989;SDS011;65924;47.250;11.332;2023-12-14T01:44:17;7.30;;;5.30;;
76989;SDS011;65924;47.250;11.332;2023-12-14T01:44:47;6.40;;;4.90;;
76989;SDS011;65924;47.250;11.332;2023-12-14T01:45:18;7.70;;;4.60;;
76989;SDS011;65924;47.250;11.332;2023-12-14T01:45:50;6.40;;;4.70;;
76989;SDS011;65924;47.250;11.332;2023-12-14T01:46:21;5.40;;;3.90;;
76989;SDS011;65924;47.250;11.332;2023-12-14T01:46:51;6.10;;;3.90;;
76989;SDS011;65924;47.250;11.332;2023-12-14T01:47:22;5.50;;;3.50;;
76989;SDS011;65924;47.250;11.332;2023-12-14T01:47:53;6.30;;;3.80;;
76989;SDS011;65924;47.250;11.332;2023-12-14T01:48:24;4.80;;;3.40;;
76989;SDS011;65924;47.250;11.332;2023-12-14T01:48:54;6.10;;;3.00;;
76989;SDS011;65924;47.250;11.332;2023-12-14T01:49:25;5.20;;;3.20;;
76989;SDS011;65924;47.250;11.332;2023-12-14T01:49:56;4.70;;;2.90;;
76989;SDS011;65924;47.250;11.332;2023-12-14T01:50:27;5.00;;;2.80;;
76989;SDS011;65924;47.250;11.332;2023-12-14T01:50:58;6.20;;;3.40;;
76989;SDS011;65924;47.250;11.332;2023-12-14T01:51:29;4.60;;;2.80;;
76989;SDS011;65924;47.250;11.332;2023-12-14T01:51:59;5.70;;;3.30;;
76989;SDS011;65924;47.250;11.332;2023-12-14T01:52:30;4.70;;;3.00;;
76989;SDS011;65924;47.250;11.332;2023-12-14T01:53:01;5.20;;;2.90;;
76989;SDS011;65924;47.250;11.332;2023-12-14T01:53:32;5.50;;;3.40;;
76989;SDS011;65924;47.250;11.332;2023-12-14T01:54:03;4.50;;;2.90;;
76989;SDS011;65924;47.250;11.332;2023-12-14T01:54:33;5.20;;;3.30;;
76989;SDS011;65924;47.250;11.332;2023-12-14T01:55:04;5.60;;;3.60;;
76989;SDS011;65924;47.250;11.332;2023-12-14T01:55:35;4.90;;;3.00;;
76989;SDS011;65924;47.250;11.332;2023-12-14T01:56:06;4.60;;;2.50;;
76989;SDS011;65924;47.250;11.332;2023-12-14T01:56:37;4.80;;;2.80;;
76989;SDS011;65924;47.250;11.332;2023-12-14T01:57:08;4.80;;;3.00;;
76989;SDS011;65924;47.250;11.332;2023-12-14T01:57:39;5.50;;;2.90;;
76989;SDS011;65924;47.250;11.332;2023-12-14T01:58:09;5.40;;;2.80;;
76989;SDS011;65924;47.250;11.332;2023-12-14T01:58:42;4.30;;;2.40;;
76989;SDS011;65924;47.250;11.332;2023-12-14T01:59:13;4.50;;;2.30;;
76989;SDS011;65924;47.250;11.332;2023-12-14T01:59:44;4.60;;;2.50;;
76989;SDS011;65924;47.250;11.332;2023-12-14T02:00:23;4.50;;;2.90;;
76989;SDS011;65924;47.250;11.332;2023-12-14T02:02:13;4.60;;;2.60;;
76989;SDS011;65924;47.250;11.332;2023-12-14T02:02:44;4.80;;;2.80;;
76989;SDS011;65924;47.250;11.332;2023-12-14T02:03:15;4.90;;;2.70;;
76989;SDS011;65924;47.250;11.332;2023-12-14T02:03:47;5.50;;;2.40;;
76989;SDS011;65924;47.250;11.332;2023-12-14T02:04:21;5.60;;;2.80;;
76989;SDS011;65924;47.250;11.332;2023-12-14T02:04:53;4.50;;;2.90;;
76989;SDS011;65924;47.250;11.332;2023-12-14T02:05:24;4.40;;;2.70;;
76989;SDS011;65924;47.250;11.332;2023-12-14T02:05:54;5.40;;;3.40;;
76989;SDS011;65924;47.250;11.332;2023-12-14T02:06:25;5.30;;;3.40;;
76989;SDS011;65924;47.250;11.332;2023-12-14T02:06:56;5.50;;;3.60;;
76989;SDS011;65924;47.250;11.332;2023-12-14T02:07:27;5.50;;;3.80;;
76989;SDS011;65924;47.250;11.332;2023-12-14T02:07:58;5.50;;;3.20;;
76989;SDS011;65924;47.250;11.332;2023-12-14T02:08:29;5.00;;;3.50;;
76989;SDS011;65924;47.250;11.332;2023-12-14T02:08:59;5.70;;;3.00;;
76989;SDS011;65924;47.250;11.332;2023-12-14T02:09:33;5.20;;;2.90;;
76989;SDS011;65924;47.250;11.332;2023-12-14T02:10:04;4.50;;;2.70;;
76989;SDS011;65924;47.250;11.332;2023-12-14T02:10:35;4.80;;;3.10;;
76989;SDS011;65924;47.250;11.332;2023-12-14T02:11:06;4.90;;;3.20;;
76989;SDS011;65924;47.250;11.332;2023-12-14T02:11:37;6.20;;;2.90;;
76989;SDS011;65924;47.250;11.332;2023-12-14T02:12:08;5.20;;;4.00;;
76989;SDS011;65924;47.250;11.332;2023-12-14T02:12:38;5.40;;;3.10;;
76989;SDS011;65924;47.250;11.332;2023-12-14T02:13:12;5.20;;;3.50;;
76989;SDS011;65924;47.250;11.332;2023-12-14T02:13:43;4.70;;;2.90;;
76989;SDS011;65924;47.250;11.332;2023-12-14T02:14:13;5.80;;;3.00;;
76989;SDS011;65924;47.250;11.332;2023-12-14T02:14:48;5.10;;;3.00;;
76989;SDS011;65924;47.250;11.332;2023-12-14T02:15:19;5.10;;;3.50;;
76989;SDS011;65924;47.250;11.332;2023-12-14T02:15:50;6.20;;;3.90;;
76989;SDS011;65924;47.250;11.332;2023-12-14T02:16:23;5.90;;;3.80;;
76989;SDS011;65924;47.250;11.332;2023-12-14T02:16:54;5.20;;;3.20;;
76989;SDS011;65924;47.250;11.332;2023-12-14T02:17:25;4.70;;;2.70;;
76989;SDS011;65924;47.250;11.332;2023-12-14T02:17:55;6.90;;;3.70;;
76989;SDS011;65924;47.250;11.332;2023-12-14T02:18:26;5.80;;;3.90;;
76989;SDS011;65924;47.250;11.332;2023-12-14T02:18:56;5.20;;;3.80;;
76989;SDS011;65924;47.250;11.332;2023-12-14T02:19:27;5.70;;;3.50;;
76989;SDS011;65924;47.250;11.332;2023-12-14T02:19:58;6.10;;;3.70;;
76989;SDS011;65924;47.250;11.332;2023-12-14T02:20:30;5.50;;;3.50;;
76989;SDS011;65924;47.250;11.332;2023-12-14T02:21:01;5.10;;;3.40;;
76989;SDS011;65924;47.250;11.332;2023-12-14T02:21:32;5.40;;;3.00;;
76989;SDS011;65924;47.250;11.332;2023-12-14T02:22:03;5.80;;;3.80;;
76989;SDS011;65924;47.250;11.332;2023-12-14T02:22:35;6.30;;;3.10;;
76989;SDS011;65924;47.250;11.332;2023-12-14T02:23:20;5.60;;;3.20;;
76989;SDS011;65924;47.250;11.332;2023-12-14T02:23:51;5.30;;;3.50;;
76989;SDS011;65924;47.250;11.332;2023-12-14T02:24:21;5.50;;;3.40;;
76989;SDS011;65924;47.250;11.332;2023-12-14T02:24:52;5.40;;;3.50;;
76989;SDS011;65924;47.250;11.332;2023-12-14T02:25:23;5.80;;;3.60;;
76989;SDS011;65924;47.250;11.332;2023-12-14T02:25:54;5.10;;;3.30;;
76989;SDS011;65924;47.250;11.332;2023-12-14T02:26:25;5.70;;;3.70;;
76989;SDS011;65924;47.250;11.332;2023-12-14T02:26:56;5.30;;;3.60;;
76989;SDS011;65924;47.250;11.332;2023-12-14T02:27:28;6.20;;;4.30;;
76989;SDS011;65924;47.250;11.332;2023-12-14T02:27:58;5.70;;;4.00;;
76989;SDS011;65924;47.250;11.332;2023-12-14T02:28:29;8.20;;;5.20;;
76989;SDS011;65924;47.250;11.332;2023-12-14T02:29:00;6.30;;;4.40;;
76989;SDS011;65924;47.250;11.332;2023-12-14T02:29:30;6.70;;;4.50;;
76989;SDS011;65924;47.250;11.332;2023-12-14T02:30:01;6.80;;;5.00;;
76989;SDS011;65924;47.250;11.332;2023-12-14T02:30:34;6.70;;;5.00;;
76989;SDS011;65924;47.250;11.332;2023-12-14T02:31:05;6.80;;;4.70;;
76989;SDS011;65924;47.250;11.332;2023-12-14T02:31:36;7.50;;;5.00;;
76989;SDS011;65924;47.250;11.332;2023-12-14T02:32:07;6.60;;;4.50;;
76989;SDS011;65924;47.250;11.332;2023-12-14T02:32:48;7.40;;;4.90;;
76989;SDS011;65924;47.250;11.332;2023-12-14T02:33:18;6.90;;;5.50;;
76989;SDS011;65924;47.250;11.332;2023-12-14T02:33:49;7.40;;;5.10;;
76989;SDS011;65924;47.250;11.332;2023-12-14T02:34:20;7.20;;;5.00;;
76989;SDS011;65924;47.250;11.332;2023-12-14T02:34:50;7.50;;;5.20;;
76989;SDS011;65924;47.250;11.332;2023-12-14T02:35:24;7.60;;;5.20;;
76989;SDS011;65924;47.250;11.332;2023-12-14T02:35:55;7.10;;;5.50;;
76989;SDS011;65924;47.250;11.332;2023-12-14T02:36:25;7.10;;;5.10;;
76989;SDS011;65924;47.250;11.332;2023-12-14T02:36:56;7.30;;;5.90;;
76989;SDS011;65924;47.250;11.332;2023-12-14T02:37:26;7.20;;;5.10;;
76989;SDS011;65924;47.250;11.332;2023-12-14T02:37:57;7.70;;;5.20;;
76989;SDS011;65924;47.250;11.332;2023-12-14T02:38:27;7.10;;;4.80;;
76989;SDS011;65924;47.250;11.332;2023-12-14T02:38:58;7.90;;;5.60;;
76989;SDS011;65924;47.250;11.332;2023-12-14T02:39:29;6.40;;;4.40;;
76989;SDS011;65924;47.250;11.332;2023-12-14T02:40:00;7.50;;;5.20;;
76989;SDS011;65924;47.250;11.332;2023-12-14T02:40:30;7.50;;;5.40;;
76989;SDS011;65924;47.250;11.332;2023-12-14T02:41:01;9.30;;;6.50;;
76989;SDS011;65924;47.250;11.332;2023-12-14T02:41:32;7.50;;;6.00;;
76989;SDS011;65924;47.250;11.332;2023-12-14T02:42:03;6.90;;;4.80;;
76989;SDS011;65924;47.250;11.332;2023-12-14T02:42:34;8.00;;;6.00;;
76989;SDS011;65924;47.250;11.332;2023-12-14T02:43:05;7.80;;;5.50;;
76989;SDS011;65924;47.250;11.332;2023-12-14T02:43:35;8.50;;;5.80;;
76989;SDS011;65924;47.250;11.332;2023-12-14T02:44:08;7.90;;;5.50;;
76989;SDS011;65924;47.250;11.332;2023-12-14T02:44:38;8.10;;;5.70;;
76989;SDS011;65924;47.250;11.332;2023-12-14T02:45:09;7.70;;;5.40;;
76989;SDS011;65924;47.250;11.332;2023-12-14T02:45:40;7.80;;;5.50;;
76989;SDS011;65924;47.250;11.332;2023-12-14T02:46:11;8.50;;;5.80;;
76989;SDS011;65924;47.250;11.332;2023-12-14T02:46:45;7.70;;;5.10;;
76989;SDS011;65924;47.250;11.332;2023-12-14T02:47:16;8.00;;;5.30;;
76989;SDS011;65924;47.250;11.332;2023-12-14T02:47:47;8.20;;;6.10;;
76989;SDS011;65924;47.250;11.332;2023-12-14T02:48:20;7.90;;;5.80;;
76989;SDS011;65924;47.250;11.332;2023-12-14T02:48:50;7.80;;;5.70;;
76989;SDS011;65924;47.250;11.332;2023-12-14T02:49:21;6.80;;;4.70;;
76989;SDS011;65924;47.250;11.332;2023-12-14T02:49:52;6.50;;;4.70;;
76989;SDS011;65924;47.250;11.332;2023-12-14T02:50:22;7.40;;;5.20;;
76989;SDS011;65924;47.250;11.332;2023-12-14T02:50:53;7.00;;;4.80;;
76989;SDS011;65924;47.250;11.332;2023-12-14T02:51:23;7.10;;;4.80;;
76989;SDS011;65924;47.250;11.332;2023-12-14T02:51:54;7.60;;;5.90;;
76989;SDS011;65924;47.250;11.332;2023-12-14T02:52:25;7.70;;;5.30;;
76989;SDS011;65924;47.250;11.332;2023-12-14T02:52:56;7.90;;;5.10;;
76989;SDS011;65924;47.250;11.332;2023-12-14T02:53:26;7.30;;;5.40;;
76989;SDS011;65924;47.250;11.332;2023-12-14T02:53:57;7.50;;;5.80;;
76989;SDS011;65924;47.250;11.332;2023-12-14T02:54:28;7.60;;;5.20;;
76989;SDS011;65924;47.250;11.332;2023-12-14T02:54:58;7.80;;;5.80;;
76989;SDS011;65924;47.250;11.332;2023-12-14T02:55:29;7.60;;;5.50;;
76989;SDS011;65924;47.250;11.332;2023-12-14T02:56:03;8.50;;;6.20;;
76989;SDS011;65924;47.250;11.332;2023-12-14T02:56:34;9.10;;;6.20;;
76989;SDS011;65924;47.250;11.332;2023-12-14T02:57:05;9.30;;;6.20;;
76989;SDS011;65924;47.250;11.332;2023-12-14T02:57:35;8.30;;;6.30;;
76989;SDS011;65924;47.250;11.332;2023-12-14T02:58:06;8.40;;;6.70;;
76989;SDS011;65924;47.250;11.332;2023-12-14T02:58:37;8.50;;;6.70;;
76989;SDS011;65924;47.250;11.332;2023-12-14T02:59:08;8.00;;;6.20;;
76989;SDS011;65924;47.250;11.332;2023-12-14T02:59:39;8.60;;;6.40;;
76989;SDS011;65924;47.250;11.332;2023-12-14T03:00:10;8.60;;;6.50;;
76989;SDS011;65924;47.250;11.332;2023-12-14T03:00:41;8.70;;;6.60;;
76989;SDS011;65924;47.250;11.332;2023-12-14T03:01:12;9.40;;;7.00;;
76989;SDS011;65924;47.250;11.332;2023-12-14T03:01:42;8.50;;;6.40;;
76989;SDS011;65924;47.250;11.332;2023-12-14T03:02:13;8.60;;;6.60;;
76989;SDS011;65924;47.250;11.332;2023-12-14T03:02:44;9.30;;;7.30;;
76989;SDS011;65924;47.250;11.332;2023-12-14T03:03:14;8.90;;;6.40;;
76989;SDS011;65924;47.250;11.332;2023-12-14T03:03:48;8.20;;;6.60;;
76989;SDS011;65924;47.250;11.332;2023-12-14T03:04:19;8.80;;;6.30;;
76989;SDS011;65924;47.250;11.332;2023-12-14T03:04:50;11.10;;;7.30;;
76989;SDS011;65924;47.250;11.332;2023-12-14T03:05:20;9.20;;;6.60;;
76989;SDS011;65924;47.250;11.332;2023-12-14T03:05:51;10.30;;;7.30;;
76989;SDS011;65924;47.250;11.332;2023-12-14T03:06:25;9.20;;;6.70;;